Time;durP1;ratioP1;P1;durP2;ratioP2;P2;SDS_P1;SDS_P2;PMS_P1;PMS_P2;Temp;Humidity;BMP_temperature;BMP_pressure;BME280_temperature;BME280_humidity;BME280_pressure;Samples;Min_cycle;Max_cycle;Signal;HPM_P1;HPM_P2
2022/02/03 00:08:11;;;;;;;13.85;8.18;;;8.40;96.70;;;;;;4990518;28;20045;-81
2022/02/03 00:24:32;;;;;;;16.80;6.90;;;8.20;96.70;;;;;;5003791;28;20041;-81
2022/02/03 00:27:07;;;;;;;15.82;7.13;;;8.00;96.70;;;;;;5002126;28;20432;-81
2022/02/03 00:29:52;;;;;;;14.15;7.40;;;8.00;96.70;;;;;;4972083;28;20137;-81
2022/02/03 00:48:46;;;;;;;13.07;5.57;;;7.40;96.70;;;;;;4984867;28;19925;-79
2022/02/03 00:51:14;;;;;;;14.63;6.30;;;7.40;96.70;;;;;;4985179;28;20103;-80
2022/02/03 00:53:43;;;;;;;22.63;8.05;;;7.70;96.70;;;;;;4988478;28;20617;-79
2022/02/03 00:56:14;;;;;;;17.77;7.05;;;7.80;96.70;;;;;;4980727;28;20047;-79
2022/02/03 00:58:51;;;;;;;16.77;6.88;;;7.90;96.70;;;;;;4983822;28;20042;-80
2022/02/03 01:01:23;;;;;;;18.80;7.47;;;7.90;96.70;;;;;;4997066;28;20049;-80
2022/02/03 01:03:53;;;;;;;15.60;7.25;;;7.90;96.70;;;;;;4980120;28;20053;-79
2022/02/03 01:06:24;;;;;;;18.33;7.10;;;7.90;96.70;;;;;;4983196;28;20744;-80
2022/02/03 01:08:56;;;;;;;15.57;6.97;;;7.80;96.70;;;;;;4984048;28;20051;-79
2022/02/03 01:11:35;;;;;;;14.05;6.65;;;7.70;96.70;;;;;;4969147;28;20052;-80
2022/02/03 01:14:11;;;;;;;14.57;6.35;;;7.80;96.70;;;;;;4998965;28;20053;-80
2022/02/03 01:17:03;;;;;;;14.50;6.38;;;7.80;96.70;;;;;;4985369;28;20056;-79
2022/02/03 01:44:28;;;;;;;16.65;8.32;;;8.10;96.70;;;;;;5005056;28;20042;-80
2022/02/03 01:47:22;;;;;;;17.02;8.18;;;8.10;96.70;;;;;;5009821;28;20049;-80
2022/02/03 01:52:29;;;;;;;23.73;8.95;;;8.10;96.70;;;;;;5000701;28;20049;-80
2022/02/03 01:54:58;;;;;;;22.23;8.43;;;8.00;96.70;;;;;;5003272;28;20547;-80
2022/02/03 01:57:35;;;;;;;19.13;8.00;;;8.00;96.70;;;;;;4988094;28;21338;-80
2022/02/03 02:00:06;;;;;;;;;;;8.00;96.70;;;;;;5003381;28;20065;-80
2022/02/03 02:02:47;;;;;;;16.65;7.78;;;8.00;96.70;;;;;;5007477;28;19925;-80
2022/02/03 02:05:35;;;;;;;14.77;7.72;;;8.10;96.70;;;;;;5007570;28;20095;-81
2022/02/03 02:08:15;;;;;;;14.65;7.47;;;7.90;96.70;;;;;;4990523;28;20033;-81
2022/02/03 02:19:26;;;;;;;16.77;8.18;;;7.90;96.70;;;;;;4918362;29;20059;-82
2022/02/03 02:39:14;;;;;;;18.00;8.18;;;7.80;96.70;;;;;;4930037;29;20067;-82
2022/02/03 02:44:51;;;;;;;13.07;7.38;;;7.80;96.70;;;;;;4918031;29;20157;-82
2022/02/03 02:47:28;;;;;;;19.40;7.32;;;7.80;96.70;;;;;;4926964;29;20048;-83
2022/02/03 02:50:05;;;;;;;16.38;7.20;;;7.90;96.70;;;;;;4950392;28;20120;-82
2022/02/03 02:52:44;;;;;;;16.85;7.18;;;7.90;96.70;;;;;;5006225;28;20105;-82
2022/02/03 02:55:35;;;;;;;17.77;7.22;;;8.00;96.70;;;;;;5003745;28;20479;-82
2022/02/03 03:36:57;;;;;;;16.63;6.38;;;8.20;96.70;;;;;;4943338;28;20059;-82
2022/02/03 03:39:30;;;;;;;15.48;5.97;;;8.20;96.70;;;;;;4988948;28;20041;-82
2022/02/03 03:42:00;;;;;;;15.20;6.03;;;8.20;96.70;;;;;;4985516;28;20073;-83
2022/02/03 03:44:30;;;;;;;15.55;7.32;;;8.20;96.70;;;;;;4995233;28;20046;-82
2022/02/03 03:47:04;;;;;;;12.80;6.10;;;8.20;96.70;;;;;;4988975;28;20093;-82
2022/02/03 03:49:38;;;;;;;17.95;6.63;;;8.20;96.70;;;;;;5003474;28;20046;-82
2022/02/03 03:52:17;;;;;;;22.80;7.03;;;8.20;96.70;;;;;;4983815;28;20057;-81
2022/02/03 03:55:01;;;;;;;16.77;6.45;;;8.20;96.70;;;;;;4982542;28;20117;-81
2022/02/03 03:57:46;;;;;;;15.13;6.13;;;8.20;96.70;;;;;;4997849;28;20132;-81
2022/02/03 04:29:52;;;;;;;19.10;6.60;;;8.10;96.70;;;;;;4984749;28;20049;-81
2022/02/03 05:01:34;;;;;;;12.63;6.38;;;8.10;96.70;;;;;;4949249;28;20043;-81
2022/02/03 05:04:19;;;;;;;17.33;6.95;;;8.20;96.70;;;;;;4926509;29;20110;-81
2022/02/03 05:18:00;;;;;;;21.25;7.88;;;8.20;96.70;;;;;;4827180;29;20644;-81
2022/02/03 05:32:59;;;;;;;19.65;7.63;;;8.20;96.70;;;;;;4908721;29;20048;-81
2022/02/03 05:47:47;;;;;;;22.05;8.30;;;8.20;96.70;;;;;;5006899;28;21064;-81
2022/02/03 06:06:52;;;;;;;23.55;10.70;;;8.10;96.70;;;;;;5007573;28;20046;-79
2022/02/03 06:09:37;;;;;;;21.65;9.85;;;8.10;96.70;;;;;;4986318;28;20481;-79
2022/02/03 06:12:36;;;;;;;17.10;8.68;;;8.10;96.70;;;;;;4986443;28;20042;-79
2022/02/03 06:15:41;;;;;;;19.98;9.18;;;8.10;96.70;;;;;;5003022;28;20571;-79
2022/02/03 06:20:54;;;;;;;20.40;7.47;;;8.10;96.70;;;;;;5001929;28;20058;-79
2022/02/03 06:23:30;;;;;;;15.77;6.72;;;8.10;96.70;;;;;;5004983;28;20112;-79
2022/02/03 06:28:48;;;;;;;23.33;7.55;;;8.10;96.70;;;;;;4990126;28;20496;-79
2022/02/03 06:31:18;;;;;;;18.13;7.65;;;8.10;96.70;;;;;;4983756;28;20045;-79
2022/02/03 06:33:47;;;;;;;14.75;7.30;;;8.10;96.70;;;;;;5003992;28;20073;-79
2022/02/03 06:36:15;;;;;;;18.05;9.02;;;8.10;96.70;;;;;;4987880;28;20459;-79
2022/02/03 06:38:44;;;;;;;23.40;9.43;;;8.10;96.70;;;;;;4982461;28;20517;-79
2022/02/03 06:41:12;;;;;;;17.75;8.02;;;8.10;96.70;;;;;;4982402;28;20052;-79
2022/02/03 06:43:42;;;;;;;14.23;8.57;;;7.90;96.70;;;;;;4981204;28;20538;-80
2022/02/03 06:46:13;;;;;;;18.75;9.02;;;7.90;96.70;;;;;;4985598;28;20161;-79
2022/02/03 06:48:50;;;;;;;15.65;8.88;;;7.90;96.70;;;;;;4983597;28;20034;-80
2022/02/03 06:51:29;;;;;;;18.75;8.65;;;7.90;96.70;;;;;;4981710;28;20512;-79
2022/02/03 06:54:16;;;;;;;;;;;8.00;96.70;;;;;;5000266;28;20563;-79
2022/02/03 06:56:58;;;;;;;14.40;8.13;;;8.00;96.70;;;;;;4984686;28;20020;-78
2022/02/03 06:59:38;;;;;;;16.60;9.00;;;7.90;96.70;;;;;;5001282;28;20054;-79
2022/02/03 07:02:07;;;;;;;15.95;9.32;;;8.00;96.70;;;;;;4983010;28;20445;-78
2022/02/03 07:04:44;;;;;;;18.58;10.95;;;8.00;96.70;;;;;;4983986;28;20089;-80
2022/02/03 07:07:17;;;;;;;18.42;10.57;;;8.10;96.70;;;;;;4982243;28;20042;-79
2022/02/03 07:09:50;;;;;;;15.00;9.32;;;8.20;96.70;;;;;;4968991;28;20042;-80
2022/02/03 07:12:20;;;;;;;19.27;10.60;;;8.20;96.70;;;;;;4981930;28;20047;-78
2022/02/03 07:14:48;;;;;;;20.52;10.60;;;8.20;96.70;;;;;;4982096;28;20046;-78
2022/02/03 07:17:17;;;;;;;17.40;9.50;;;8.20;96.70;;;;;;4986152;28;20493;-78
2022/02/03 07:19:49;;;;;;;13.38;8.05;;;8.20;96.70;;;;;;4984703;28;20062;-78
2022/02/03 07:22:17;;;;;;;15.40;7.65;;;8.30;96.70;;;;;;4981737;28;20039;-78
2022/02/03 07:24:51;;;;;;;11.63;7.45;;;8.20;96.70;;;;;;4998983;28;20089;-77
2022/02/03 07:27:21;;;;;;;13.75;7.45;;;8.20;96.70;;;;;;5003393;28;20789;-78
2022/02/03 07:29:50;;;;;;;14.70;8.40;;;8.20;96.70;;;;;;4979646;28;20137;-78
2022/02/03 07:32:18;;;;;;;13.50;8.07;;;8.30;96.70;;;;;;4997965;28;20045;-78
2022/02/03 07:34:51;;;;;;;14.38;7.45;;;8.30;96.70;;;;;;4994562;28;20034;-78
2022/02/03 07:37:22;;;;;;;9.90;6.57;;;8.20;96.70;;;;;;4999365;28;20401;-78
2022/02/03 07:39:50;;;;;;;14.00;7.70;;;8.20;96.70;;;;;;4986873;28;20050;-78
2022/02/03 07:42:19;;;;;;;13.93;8.77;;;8.20;96.70;;;;;;4982074;28;20042;-78
2022/02/03 07:44:47;;;;;;;16.42;9.23;;;8.30;96.70;;;;;;4983976;28;20046;-78
2022/02/03 07:47:16;;;;;;;11.80;8.52;;;8.20;96.70;;;;;;4984368;28;20652;-78
2022/02/03 07:49:44;;;;;;;14.52;9.02;;;8.20;96.70;;;;;;4983793;28;20125;-78
2022/02/03 07:52:14;;;;;;;19.77;10.35;;;8.20;96.70;;;;;;4983491;28;20038;-78
2022/02/03 07:54:42;;;;;;;18.95;10.32;;;8.20;96.70;;;;;;4979983;28;20424;-78
2022/02/03 07:57:11;;;;;;;20.50;11.60;;;8.30;96.70;;;;;;4983672;28;20069;-78
2022/02/03 07:59:40;;;;;;;17.85;10.85;;;8.30;96.70;;;;;;4980013;28;20047;-77
2022/02/03 08:02:08;;;;;;;17.63;10.63;;;8.40;96.70;;;;;;4977318;28;20039;-77
2022/02/03 08:04:43;;;;;;;20.13;11.48;;;8.40;96.70;;;;;;4981489;28;20042;-78
2022/02/03 08:07:16;;;;;;;23.15;11.43;;;8.40;96.70;;;;;;5001018;28;20056;-77
2022/02/03 08:09:58;;;;;;;20.40;11.30;;;8.40;96.70;;;;;;4994817;28;20038;-78
2022/02/03 08:12:31;;;;;;;20.15;11.25;;;8.40;96.70;;;;;;4983791;28;20045;-78
2022/02/03 08:15:01;;;;;;;19.63;11.43;;;8.40;96.70;;;;;;4980299;28;20324;-78
2022/02/03 08:17:37;;;;;;;22.25;12.00;;;8.40;96.70;;;;;;4997913;28;20104;-77
2022/02/03 08:20:12;;;;;;;21.50;12.65;;;8.50;96.70;;;;;;4981181;28;20421;-78
2022/02/03 08:22:50;;;;;;;17.30;9.20;;;8.50;96.70;;;;;;4983942;28;20597;-78
2022/02/03 08:25:23;;;;;;;22.50;11.55;;;8.50;96.70;;;;;;4984137;28;20052;-78
2022/02/03 08:30:47;;;;;;;20.98;12.80;;;8.50;96.70;;;;;;4983977;28;20576;-78
2022/02/03 08:33:20;;;;;;;17.58;11.10;;;8.40;96.70;;;;;;4980198;28;20144;-80
2022/02/03 08:35:50;;;;;;;18.30;9.90;;;8.40;96.70;;;;;;4983220;28;20073;-77
2022/02/03 08:38:28;;;;;;;19.60;10.82;;;8.50;96.70;;;;;;4981802;28;20587;-77
2022/02/03 08:41:01;;;;;;;22.27;11.18;;;8.40;96.70;;;;;;4986043;28;20123;-77
2022/02/03 08:43:30;;;;;;;19.23;10.65;;;8.50;96.70;;;;;;4999333;28;20081;-77
2022/02/03 08:46:00;;;;;;;19.75;11.60;;;8.60;96.70;;;;;;5004144;28;20523;-76
2022/02/03 08:48:29;;;;;;;16.30;9.82;;;8.70;96.70;;;;;;4985547;28;20038;-76
2022/02/03 08:51:00;;;;;;;14.85;10.35;;;8.60;96.70;;;;;;4983472;28;20436;-77
2022/02/03 08:53:38;;;;;;;16.95;10.15;;;8.70;96.70;;;;;;5002955;28;20029;-78
2022/02/03 08:59:26;;;;;;;13.15;8.02;;;8.70;96.70;;;;;;5004141;28;20096;-77
2022/02/03 09:40:17;;;;;;;20.45;13.93;;;9.10;96.70;;;;;;4993352;28;20053;-76
2022/02/03 09:59:17;;;;;;;19.98;14.70;;;9.50;96.70;;;;;;4982919;28;20058;-78
2022/02/03 10:01:53;;;;;;;18.38;13.77;;;9.70;96.70;;;;;;4986934;28;20042;-78
2022/02/03 10:04:44;;;;;;;18.17;13.85;;;9.70;96.70;;;;;;4988349;28;20050;-76
2022/02/03 10:07:34;;;;;;;20.15;15.13;;;9.80;96.70;;;;;;4981817;28;20098;-76
2022/02/03 10:10:08;;;;;;;20.33;15.00;;;9.80;96.70;;;;;;4982446;28;20120;-77
2022/02/03 10:12:38;;;;;;;19.67;14.05;;;9.80;96.70;;;;;;4985668;28;20412;-76
2022/02/03 10:15:10;;;;;;;19.88;13.88;;;10.10;96.70;;;;;;5005803;28;20138;-76
2022/02/03 10:17:40;;;;;;;17.38;12.65;;;10.20;96.70;;;;;;4989900;28;20038;-77
2022/02/03 10:20:12;;;;;;;17.02;12.70;;;10.20;96.70;;;;;;4986766;28;20030;-76
2022/02/03 10:22:49;;;;;;;16.38;11.48;;;10.10;96.70;;;;;;4997796;28;20512;-77
2022/02/03 10:25:24;;;;;;;15.80;11.20;;;10.00;96.70;;;;;;4998377;28;20454;-76
2022/02/03 10:28:03;;;;;;;12.68;10.68;;;10.00;96.70;;;;;;4987539;28;20046;-76
2022/02/03 10:31:17;;;;;;;13.18;11.07;;;10.20;96.70;;;;;;4982083;28;20046;-77
2022/02/03 10:33:31;;;;;;;18.30;9.85;;;10.30;96.70;;;;;;4976475;28;20052;-77
2022/02/03 10:36:06;;;;;;;13.00;10.10;;;10.40;96.70;;;;;;4997130;28;20057;-77
2022/02/03 10:38:56;;;;;;;16.67;10.32;;;10.60;96.70;;;;;;4982982;28;20042;-76
2022/02/03 10:41:57;;;;;;;12.05;9.90;;;10.70;96.70;;;;;;5001137;28;20038;-76
2022/02/03 11:07:54;;;;;;;17.08;12.75;;;11.60;96.70;;;;;;4990674;28;20284;-78
2022/02/03 11:10:31;;;;;;;17.88;11.75;;;11.70;96.70;;;;;;4999211;28;20115;-77
2022/02/03 11:13:00;;;;;;;15.88;11.70;;;11.80;96.70;;;;;;5001181;28;20050;-77
2022/02/03 11:15:30;;;;;;;18.30;13.18;;;12.00;96.70;;;;;;4980809;28;20461;-77
2022/02/03 11:18:05;;;;;;;16.58;12.25;;;12.10;96.70;;;;;;4979985;28;20133;-76
2022/02/03 11:20:39;;;;;;;17.05;12.25;;;12.10;96.70;;;;;;4983323;28;20369;-77
2022/02/03 11:23:21;;;;;;;16.25;11.65;;;12.20;96.70;;;;;;4983419;28;20042;-77
2022/02/03 11:39:58;;;;;;;13.95;11.05;;;12.70;96.70;;;;;;5002901;28;20041;-77
2022/02/03 11:45:45;;;;;;;14.98;9.85;;;13.00;96.70;;;;;;5008815;28;20403;-77
2022/02/03 11:56:31;;;;;;;12.95;9.00;;;13.10;96.70;;;;;;5002348;28;20048;-76
2022/02/03 12:02:40;;;;;;;14.00;9.50;;;13.30;96.70;;;;;;5001325;28;20411;-77
2022/02/03 12:11:31;;;;;;;12.23;8.52;;;13.90;96.70;;;;;;5001084;28;20046;-76
2022/02/03 12:19:45;;;;;;;14.00;8.75;;;14.40;96.70;;;;;;5002396;28;20327;-77
2022/02/03 12:23:10;;;;;;;14.23;8.20;;;14.40;96.70;;;;;;5004406;28;20049;-78
2022/02/03 12:25:29;;;;;;;11.88;7.82;;;14.60;96.70;;;;;;4994646;28;20045;-79
2022/02/03 12:28:16;;;;;;;9.80;7.32;;;14.60;96.70;;;;;;4998740;28;20038;-77
2022/02/03 12:39:12;;;;;;;15.38;8.90;;;14.50;96.70;;;;;;5004982;28;20100;-82
2022/02/03 12:41:59;;;;;;;15.30;9.00;;;14.60;96.70;;;;;;4985716;28;20050;-81
2022/02/03 12:44:29;;;;;;;15.73;8.48;;;14.70;96.70;;;;;;4984302;28;20301;-82
2022/02/03 12:47:02;;;;;;;17.90;9.93;;;14.80;96.70;;;;;;4987105;28;20038;-81
2022/02/03 12:49:35;;;;;;;13.40;9.82;;;15.00;96.70;;;;;;5007188;28;20050;-83
2022/02/03 12:52:24;;;;;;;17.33;10.20;;;15.00;96.70;;;;;;4988229;28;20050;-83
2022/02/03 12:54:53;;;;;;;13.90;9.63;;;15.10;96.70;;;;;;4985397;28;20073;-84
2022/02/03 12:57:33;;;;;;;15.15;9.75;;;15.00;96.70;;;;;;4971996;28;20050;-84
2022/02/03 13:00:14;;;;;;;14.02;9.75;;;14.90;96.70;;;;;;4990797;28;20046;-82
2022/02/03 13:02:52;;;;;;;15.00;8.70;;;15.00;96.70;;;;;;4993431;28;20057;-82
2022/02/03 13:05:22;;;;;;;14.98;9.52;;;15.20;96.70;;;;;;5008570;28;20107;-81
2022/02/03 13:07:52;;;;;;;12.52;8.48;;;15.40;96.70;;;;;;5004691;28;20064;-83
2022/02/03 13:10:23;;;;;;;15.50;9.25;;;15.50;96.70;;;;;;4991592;28;20104;-82
2022/02/03 13:13:05;;;;;;;13.52;7.88;;;15.60;96.70;;;;;;4994206;28;20049;-83
2022/02/03 13:15:36;;;;;;;15.02;8.02;;;15.70;96.70;;;;;;4996560;28;20129;-84
2022/02/03 13:18:30;;;;;;;13.45;8.05;;;15.70;96.70;;;;;;5008831;28;20045;-82
2022/02/03 13:21:04;;;;;;;11.63;5.72;;;15.70;96.70;;;;;;5010034;28;20274;-81
2022/02/03 13:23:39;;;;;;;11.73;5.95;;;15.50;96.70;;;;;;5012185;28;20040;-82
2022/02/03 13:26:14;;;;;;;11.63;5.40;;;15.50;96.70;;;;;;5005942;28;20046;-83
2022/02/03 13:28:59;;;;;;;11.20;4.70;;;15.60;96.70;;;;;;4995970;28;20514;-83
2022/02/03 13:31:43;;;;;;;11.35;5.40;;;15.70;96.70;;;;;;5003867;28;20507;-84
2022/02/03 13:34:26;;;;;;;12.05;6.30;;;15.90;96.70;;;;;;5006188;28;20073;-83
2022/02/03 13:37:11;;;;;;;13.85;6.00;;;15.90;96.70;;;;;;4993683;28;20053;-82
2022/02/03 13:39:44;;;;;;;12.90;6.80;;;15.80;96.70;;;;;;5010269;28;20052;-83
2022/02/03 13:42:13;;;;;;;10.23;5.80;;;15.80;96.70;;;;;;5010388;28;20045;-84
2022/02/03 13:44:42;;;;;;;13.15;7.47;;;15.70;96.70;;;;;;4991896;28;20045;-84
2022/02/03 13:47:22;;;;;;;12.52;7.57;;;15.70;96.70;;;;;;4995023;28;20048;-83
2022/02/03 13:50:01;;;;;;;15.25;6.35;;;15.70;96.70;;;;;;4989677;28;20050;-83
2022/02/03 13:52:35;;;;;;;11.25;6.07;;;15.70;96.70;;;;;;5009028;28;20049;-85
2022/02/03 14:18:48;;;;;;;15.00;6.78;;;15.40;96.70;;;;;;5012900;28;20084;-85
2022/02/03 14:21:23;;;;;;;12.68;6.55;;;15.40;96.70;;;;;;5007583;28;20076;-82
2022/02/03 14:27:01;;;;;;;11.18;7.35;;;15.40;96.70;;;;;;5015975;28;20402;-84
2022/02/03 14:29:36;;;;;;;16.05;9.02;;;15.40;96.70;;;;;;4988653;28;20050;-83
2022/02/03 14:32:06;;;;;;;21.65;10.85;;;15.40;96.70;;;;;;4989766;28;20049;-84
2022/02/03 14:34:37;;;;;;;10.80;6.55;;;15.40;96.70;;;;;;5010320;28;20584;-83
2022/02/03 14:37:15;;;;;;;14.73;6.72;;;15.40;96.70;;;;;;4986206;28;20047;-82
2022/02/03 14:42:35;;;;;;;15.47;7.40;;;15.30;96.70;;;;;;4983289;28;20057;-84
2022/02/03 14:45:04;;;;;;;13.07;6.88;;;15.20;96.70;;;;;;4984458;28;20075;-83
2022/02/03 14:47:33;;;;;;;13.48;6.72;;;15.20;96.70;;;;;;4969907;28;20074;-84
2022/02/03 14:50:05;;;;;;;14.52;6.88;;;15.20;96.70;;;;;;4966900;28;20047;-84
2022/02/03 14:52:45;;;;;;;12.23;6.90;;;15.20;96.70;;;;;;4980672;28;20082;-83
2022/02/03 14:58:15;;;;;;;19.45;8.02;;;15.20;96.70;;;;;;4967941;28;20051;-83
2022/02/03 15:00:47;;;;;;;14.80;7.18;;;15.20;96.70;;;;;;4985867;28;20608;-84
2022/02/03 15:03:17;;;;;;;17.48;7.47;;;15.20;96.70;;;;;;4970309;28;20039;-83
2022/02/03 15:05:53;;;;;;;11.90;7.13;;;15.20;96.70;;;;;;4987761;28;20562;-84
2022/02/03 15:08:44;;;;;;;16.48;8.10;;;15.20;96.70;;;;;;4965993;28;20048;-83
2022/02/03 15:11:17;;;;;;;10.68;6.43;;;15.10;96.70;;;;;;4981078;28;20046;-82
2022/02/03 15:13:48;;;;;;;17.98;8.77;;;15.00;96.70;;;;;;4986992;28;20066;-83
2022/02/03 15:16:17;;;;;;;14.05;6.80;;;15.00;96.70;;;;;;4984125;28;20042;-82
2022/02/03 15:19:06;;;;;;;19.27;8.93;;;14.90;96.70;;;;;;4970885;28;20042;-84
2022/02/03 15:21:36;;;;;;;12.70;6.25;;;14.90;96.70;;;;;;4949732;28;20117;-83
2022/02/03 15:24:05;;;;;;;14.65;6.30;;;14.80;96.70;;;;;;4974624;28;20045;-84
2022/02/03 15:26:33;;;;;;;11.20;5.50;;;14.80;96.70;;;;;;4967652;28;20129;-84
2022/02/03 15:29:02;;;;;;;14.82;5.75;;;14.80;96.70;;;;;;4984157;28;20049;-84
2022/02/03 15:31:32;;;;;;;13.98;5.10;;;14.80;96.70;;;;;;4981045;28;20135;-84
2022/02/03 15:34:08;;;;;;;14.13;6.00;;;14.90;96.70;;;;;;4965870;28;20054;-83
2022/02/03 15:36:39;;;;;;;15.07;5.72;;;15.00;96.70;;;;;;4994722;28;20065;-85
2022/02/03 15:39:10;;;;;;;14.68;5.97;;;15.00;96.70;;;;;;5002166;28;20552;-82
2022/02/03 15:41:40;;;;;;;17.35;6.78;;;15.20;96.70;;;;;;4998858;28;20049;-83
2022/02/03 15:44:08;;;;;;;9.55;5.43;;;15.30;96.70;;;;;;4988894;28;20085;-83
2022/02/03 15:46:43;;;;;;;15.88;5.53;;;15.60;96.70;;;;;;5004823;28;20136;-82
2022/02/03 15:49:44;;;;;;;12.95;5.63;;;15.50;96.70;;;;;;4990350;28;20510;-83
2022/02/03 16:17:29;;;;;;;16.45;7.18;;;14.00;96.70;;;;;;5001032;28;20054;-83
2022/02/03 16:20:04;;;;;;;18.60;7.57;;;13.90;96.70;;;;;;4983734;28;20193;-84
2022/02/03 16:25:33;;;;;;;32.60;13.75;;;13.80;96.70;;;;;;5003362;28;20038;-82
2022/02/03 16:43:29;;;;;;;29.17;9.82;;;13.30;96.70;;;;;;5005893;28;20053;-83
2022/02/03 16:53:11;;;;;;;20.83;9.18;;;13.00;96.70;;;;;;5012444;28;20654;-83
2022/02/03 16:55:42;;;;;;;17.05;8.50;;;13.00;96.70;;;;;;5002459;28;20107;-83
2022/02/03 16:58:12;;;;;;;14.27;7.70;;;12.90;96.70;;;;;;4995035;28;20038;-83
2022/02/03 17:00:40;;;;;;;19.58;7.45;;;12.90;96.70;;;;;;5017461;28;20046;-83
2022/02/03 17:03:09;;;;;;;18.25;6.30;;;12.80;96.70;;;;;;4994516;28;20079;-82
2022/02/03 17:05:38;;;;;;;18.00;7.30;;;12.80;96.70;;;;;;4999180;28;20052;-82
2022/02/03 17:08:07;;;;;;;14.77;7.00;;;12.90;96.70;;;;;;4999891;28;20050;-83
2022/02/03 17:10:36;;;;;;;17.75;7.82;;;12.80;96.70;;;;;;4994113;28;20037;-83
2022/02/03 17:13:04;;;;;;;18.45;8.27;;;12.80;96.70;;;;;;4991719;28;20092;-83
2022/02/03 17:15:35;;;;;;;14.45;6.60;;;12.80;96.70;;;;;;4993216;28;20370;-83
2022/02/03 17:18:04;;;;;;;18.08;7.20;;;12.80;96.70;;;;;;4998266;28;20045;-84
2022/02/03 17:20:35;;;;;;;16.92;7.30;;;12.80;96.70;;;;;;4995114;28;20296;-84
2022/02/03 17:23:06;;;;;;;15.90;7.22;;;12.70;96.70;;;;;;4993135;28;20069;-83
2022/02/03 17:25:47;;;;;;;21.13;7.72;;;12.70;96.70;;;;;;5012181;28;20050;-83
2022/02/03 17:31:44;;;;;;;24.55;9.15;;;12.70;96.70;;;;;;4996943;28;20588;-83
2022/02/03 18:34:25;;;;;;;22.42;12.70;;;12.20;96.70;;;;;;5007574;28;20037;-80
2022/02/03 18:37:28;;;;;;;22.42;13.75;;;12.20;96.70;;;;;;5009175;28;20060;-79
2022/02/03 18:51:20;;;;;;;30.60;17.75;;;12.20;96.70;;;;;;4986853;28;20395;-78
2022/02/03 18:56:34;;;;;;;25.95;17.95;;;12.10;96.70;;;;;;4985495;28;20046;-79
2022/02/03 19:14:19;;;;;;;31.25;21.00;;;12.00;96.70;;;;;;5003597;28;19972;-78
2022/02/03 19:20:50;;;;;;;34.67;23.98;;;12.00;96.70;;;;;;5005101;28;20048;-80
2022/02/03 20:03:24;;;;;;;26.65;19.15;;;11.60;96.70;;;;;;5011003;28;20050;-77
2022/02/03 20:05:52;;;;;;;27.02;19.13;;;11.60;96.70;;;;;;5001865;28;20447;-77
2022/02/03 20:10:53;;;;;;;30.33;16.88;;;11.50;96.70;;;;;;5002764;28;20538;-78
2022/02/03 20:13:22;;;;;;;27.15;15.35;;;11.50;96.70;;;;;;4984459;28;20038;-77
2022/02/03 20:15:53;;;;;;;27.92;16.65;;;11.50;96.70;;;;;;4989685;28;20053;-77
2022/02/03 20:18:22;;;;;;;22.83;14.75;;;11.40;96.70;;;;;;5002259;28;20595;-77
2022/02/03 20:20:50;;;;;;;23.90;14.27;;;11.40;96.70;;;;;;4988433;28;20123;-77
2022/02/03 20:23:21;;;;;;;22.52;14.77;;;11.40;96.70;;;;;;4997197;28;20449;-75
2022/02/03 20:25:57;;;;;;;26.67;15.63;;;11.40;96.70;;;;;;5001685;28;20092;-76
2022/02/03 20:28:28;;;;;;;23.67;14.75;;;11.20;96.70;;;;;;4982074;28;20080;-77
2022/02/03 20:30:59;;;;;;;22.10;13.98;;;11.10;96.70;;;;;;4998662;28;20423;-77
2022/02/03 20:33:29;;;;;;;28.02;16.75;;;11.10;96.70;;;;;;4997523;28;20084;-77
2022/02/03 20:35:57;;;;;;;27.58;16.92;;;11.20;96.70;;;;;;4994405;28;20261;-76
2022/02/03 20:38:26;;;;;;;27.85;17.95;;;11.20;96.70;;;;;;4983478;28;20045;-77
2022/02/03 20:40:55;;;;;;;28.65;17.30;;;11.20;96.70;;;;;;5000646;28;20046;-78
2022/02/03 20:43:24;;;;;;;26.02;17.35;;;11.20;96.70;;;;;;4971886;28;20137;-78
2022/02/03 20:45:53;;;;;;;24.48;16.05;;;11.10;96.70;;;;;;4984086;28;20112;-77
2022/02/03 20:48:25;;;;;;;22.98;16.05;;;11.00;96.70;;;;;;4984017;28;20034;-76
2022/02/03 20:50:53;;;;;;;24.33;16.17;;;11.00;96.70;;;;;;4980802;28;20140;-76
2022/02/03 20:53:21;;;;;;;26.67;16.55;;;11.00;96.70;;;;;;4985641;28;20103;-76
2022/02/03 20:55:51;;;;;;;25.98;16.77;;;11.00;96.70;;;;;;4989343;28;20499;-76
2022/02/03 20:58:21;;;;;;;24.60;17.00;;;11.00;96.70;;;;;;5004489;28;20061;-77
2022/02/03 21:01:05;;;;;;;26.00;16.73;;;11.10;96.70;;;;;;5000407;28;20353;-76
2022/02/03 21:03:40;;;;;;;25.02;15.38;;;11.10;96.70;;;;;;4997213;28;20042;-77
2022/02/03 21:06:10;;;;;;;23.42;13.65;;;11.00;96.70;;;;;;4994523;28;20128;-77
2022/02/03 21:08:41;;;;;;;22.55;13.60;;;11.00;96.70;;;;;;4969571;28;20862;-77
2022/02/03 21:11:10;;;;;;;22.48;11.55;;;11.00;96.70;;;;;;4985522;28;20042;-79
2022/02/03 21:13:38;;;;;;;20.27;11.15;;;11.00;96.70;;;;;;4982578;28;20542;-79
2022/02/03 21:16:08;;;;;;;19.20;10.05;;;10.90;96.70;;;;;;4989208;28;20053;-79
2022/02/03 21:18:41;;;;;;;20.02;11.00;;;10.90;96.70;;;;;;4993941;28;20054;-79
2022/02/03 21:21:10;;;;;;;20.27;13.07;;;10.90;96.70;;;;;;4983875;28;20046;-78
2022/02/03 21:23:39;;;;;;;20.05;14.02;;;10.80;96.70;;;;;;5001416;28;20190;-79
2022/02/03 21:26:16;;;;;;;19.48;13.35;;;10.80;96.70;;;;;;5004167;28;20503;-77
2022/02/03 21:28:48;;;;;;;20.58;13.25;;;10.80;96.70;;;;;;4983455;28;20515;-79
2022/02/03 21:31:20;;;;;;;16.83;11.90;;;10.70;96.70;;;;;;4984193;28;20842;-79
2022/02/03 21:33:55;;;;;;;22.85;12.65;;;10.70;96.70;;;;;;4984108;28;20144;-77
2022/02/03 21:36:26;;;;;;;23.70;11.77;;;10.70;96.70;;;;;;4987160;28;20053;-78
2022/02/03 21:38:56;;;;;;;18.45;10.25;;;10.70;96.70;;;;;;5006685;28;20095;-77
2022/02/03 21:41:24;;;;;;;14.90;8.20;;;10.70;96.70;;;;;;5003851;28;20467;-78
2022/02/03 21:43:53;;;;;;;17.95;8.65;;;10.60;96.70;;;;;;4999469;28;20038;-78
2022/02/03 21:46:21;;;;;;;16.65;8.25;;;10.60;96.70;;;;;;5004348;28;20037;-76
2022/02/03 21:48:51;;;;;;;18.17;9.23;;;10.60;96.70;;;;;;5002187;28;20428;-78
2022/02/03 21:51:27;;;;;;;19.75;9.85;;;10.60;96.70;;;;;;4987565;28;20045;-78
2022/02/03 21:53:55;;;;;;;22.87;10.73;;;10.60;96.70;;;;;;5005367;28;20152;-79
2022/02/03 21:56:24;;;;;;;20.38;10.43;;;10.60;96.70;;;;;;5003407;28;20057;-80
2022/02/03 21:58:52;;;;;;;21.52;11.80;;;10.60;96.70;;;;;;4991501;28;20052;-79
2022/02/03 22:01:23;;;;;;;24.40;12.52;;;10.60;96.70;;;;;;5004766;28;20107;-80
2022/02/03 22:03:53;;;;;;;25.20;12.10;;;10.50;96.70;;;;;;4987458;28;20120;-80
2022/02/03 22:06:21;;;;;;;20.23;11.77;;;10.50;96.70;;;;;;5006388;28;20050;-80
2022/02/03 22:08:49;;;;;;;25.20;13.80;;;10.50;96.70;;;;;;5003878;28;20042;-80
2022/02/03 22:11:18;;;;;;;22.08;12.98;;;10.40;96.70;;;;;;4986181;28;20073;-79
2022/02/03 22:13:46;;;;;;;21.85;11.82;;;10.40;96.70;;;;;;5003900;28;20038;-80
2022/02/03 22:16:20;;;;;;;19.42;11.40;;;10.30;96.70;;;;;;4990608;28;20041;-79
2022/02/03 22:18:49;;;;;;;16.85;9.02;;;10.20;96.70;;;;;;4988581;28;20503;-78
2022/02/03 22:21:48;;;;;;;19.25;8.82;;;10.00;96.70;;;;;;4989561;28;20096;-79
2022/02/03 22:24:20;;;;;;;19.52;9.93;;;10.00;96.70;;;;;;5003995;28;20049;-79
2022/02/03 22:45:55;;;;;;;21.90;12.50;;;10.10;96.70;;;;;;5004292;28;20038;-82
2022/02/03 22:48:26;;;;;;;24.42;13.05;;;10.10;96.70;;;;;;4987961;28;20054;-81
2022/02/03 22:50:57;;;;;;;26.00;14.00;;;10.10;96.70;;;;;;4991446;28;20144;-81
2022/02/03 22:53:35;;;;;;;24.73;14.27;;;10.10;96.70;;;;;;4986289;28;20073;-81
2022/02/03 22:56:05;;;;;;;26.05;14.43;;;10.10;96.70;;;;;;4992312;28;20416;-81
2022/02/03 23:01:08;;;;;;;25.25;14.05;;;10.10;96.70;;;;;;5005301;28;20092;-82
2022/02/03 23:03:40;;;;;;;21.65;12.18;;;10.10;96.70;;;;;;4995817;28;20060;-81
2022/02/03 23:06:09;;;;;;;25.42;12.85;;;10.20;96.70;;;;;;5006720;28;20053;-82
2022/02/03 23:22:12;;;;;;;25.50;14.40;;;10.30;96.70;;;;;;4990517;28;20104;-82
2022/02/03 23:24:45;;;;;;;20.83;11.90;;;10.40;96.70;;;;;;5004371;28;20062;-81
2022/02/03 23:29:55;;;;;;;21.42;10.93;;;10.40;96.70;;;;;;5007744;28;20541;-81
2022/02/03 23:32:24;;;;;;;24.98;12.88;;;10.40;96.70;;;;;;4992195;28;20042;-79
2022/02/03 23:35:38;;;;;;;26.50;12.90;;;10.40;96.70;;;;;;5003257;28;20052;-78
2022/02/03 23:37:49;;;;;;;23.30;11.80;;;10.30;96.70;;;;;;5000863;28;20610;-78
